VTBS/BKK METAR and TAF weather

Enter ICAO airport designator
Station Type Date Time Source
VTBS METAR 2019/04/24 15:30 UTC NOAA

VTBS 241530Z 20009KT 9999 FEW020 31/26 Q1007 NOSIG


Station Type Date Time Source
VTBS Decoded METAR 2019/04/24 15:30 UTC NOAA

Chon Buri, Thailand (VTBS) 13-22N 100-59E 2M
Apr 24, 2019 - 11:30 AM EDT / 2019.04.24 1530 UTC
Wind: from the SSW (200 degrees) at 10 MPH (9 KT):0
Visibility: greater than 7 mile(s):0
Sky conditions: mostly clear
Temperature: 87 F (31 C)
Heat index: 99.7 F (37.6 C):1
Dew Point: 78 F (26 C)
Relative Humidity: 74%
Pressure (altimeter): 29.74 in. Hg (1007 hPa)
ob: VTBS 241530Z 20009KT 9999 FEW020 31/26 Q1007 NOSIG
cycle: 15

Station Type Date Time Source
VTBS TAF 2019/04/24 12:00 UTC NOAA

TAF VTBS 241100Z 2412/2518 19008KT 9999 FEW020
TEMPO 2512/2518 19010G25KT 5000 TSRA FEW018CB SCT030 BKN100

Example: see airport list